M I D A S
Marine Information and Data Acquisition System
Tripno 682 of the Zeeleeuw from 2004-04-05 07:58:26 to 2004-04-05 12:58:35
Back to CruiseResearch ActivitiesStationsMapUnderway DataData graphs

EquipmentUnitsComment
TimeDGPSUTC
LatitudeDGPSDM.mWGS84
LongitudeDGPSDM.mWGS84
TemperatureSBE03/SBE38deg celciusITS90
ConductivitySBE21S/mITS90
SalinitySBE21 Practical Salinity Units
ChlorophylAChelsea fluorimeterg/lCalibrated in Aceton
Missing or incorrect values are displayed as -999
Sea surface data collected by the RV Zeeleeuw from 2004-04-05 07:58:26 to 2004-04-05 12:58:35
Time Latitude Longitude Temperature Conductivity Salinity ChlorophylA
2004-04-05 07:59:29 51°13.596 2°56.097 20.496079 0.012767 0.069123 0.904221
2004-04-05 08:00:29 51°13.612 2°56.048 20.285941 0.012767 0.069168 0.803093
2004-04-05 08:01:29 51°13.64 2°55.95 20.172443 0.012767 0.069209 0.97164
2004-04-05 08:02:29 51°13.674 2°55.837 19.808737 0.012767 0.069244 0.668255
2004-04-05 08:03:29 51°13.685 2°55.778 21.425883 0.012767 0.069285 0.735674
2004-04-05 08:04:29 51°13.677 2°55.761 20.431318 0.012767 0.069317 0.735674
2004-04-05 08:05:27 51°13.728 2°55.742 20.652852 0.012767 0.069351 0.668255
2004-04-05 08:06:29 51°13.813 2°55.645 20.334729 0.012767 0.069385 0.533418
2004-04-05 08:07:33 51°13.939 2°55.551 18.990903 0.012767 0.069436 0.465999
2004-04-05 08:08:33 51°14.064 2°55.462 15.02536 0.012767 0.069471 -0.612702
2004-04-05 08:09:33 51°14.205 2°55.339 15.593187 0.012767 0.073946 -0.680121
2004-04-05 08:10:33 51°14.33 2°55.137 9.916488 2.922894 25.391886 17.051024
2004-04-05 08:11:33 51°14.429 2°54.887 9.607171 3.08712 27.776859 22.646785
2004-04-05 08:12:33 51°14.401 2°54.576 9.526056 3.465946 31.759484 28.613349
2004-04-05 08:13:33 51°14.307 2°54.259 9.416121 3.617983 33.370408 33.197828
2004-04-05 08:14:33 51°14.209 2°53.927 9.390892 3.640323 33.665725 32.894443
2004-04-05 08:15:33 51°14.109 2°53.59 9.356228 3.645908 33.745564 30.163982
2004-04-05 08:16:33 51°14.009 2°53.253 9.310692 3.651704 33.854821 29.085281
2004-04-05 08:17:33 51°13.91 2°52.912 9.272096 3.655077 33.914476 25.680631
2004-04-05 08:18:33 51°13.784 2°52.592 9.228969 3.658871 34.000431 24.500802
2004-04-05 08:19:33 51°13.656 2°52.276 9.204379 3.659082 34.027617 29.321247
2004-04-05 08:20:33 51°13.529 2°51.961 9.16173 3.659399 34.072394 29.186409
2004-04-05 08:21:33 51°13.401 2°51.646 9.131506 3.657186 34.080837 29.11899
2004-04-05 08:22:33 51°13.28 2°51.33 9.11986 3.657608 34.101708 27.838033
2004-04-05 08:23:33 51°13.167 2°51.007 9.093279 3.654342 34.106334 26.186272
2004-04-05 08:24:33 51°13.056 2°50.683 9.139396 3.651918 34.056795 25.410956
2004-04-05 08:25:33 51°12.945 2°50.358 9.214729 3.652022 34.010052 27.770614
2004-04-05 08:26:33 51°12.833 2°50.036 9.239931 3.653392 33.971069 27.635777
2004-04-05 08:27:33 51°12.721 2°49.713 9.186952 3.655183 34.006022 25.444665
2004-04-05 08:28:33 51°12.61 2°49.383 9.125469 3.653814 34.054494 23.52323
2004-04-05 08:29:33 51°12.498 2°49.054 9.071683 3.651707 34.076611 23.52323
2004-04-05 08:30:33 51°12.387 2°48.722 9.066069 3.651076 34.119653 23.725486
2004-04-05 08:31:33 51°12.276 2°48.391 9.11211 3.650021 34.060673 29.860597
2004-04-05 08:32:33 51°12.164 2°48.06 9.096703 3.651707 34.075038 32.624768
2004-04-05 08:33:33 51°12.052 2°47.727 9.078867 3.652445 34.104735 35.085554
2004-04-05 08:34:33 51°11.941 2°47.395 9.081626 3.65392 34.12716 33.770888
2004-04-05 08:35:33 51°11.842 2°47.053 9.056885 3.654131 34.13487 31.208973
2004-04-05 08:36:33 51°11.756 2°46.699 9.017995 3.654237 34.174654 30.602204
2004-04-05 08:37:33 51°11.671 2°46.347 8.995422 3.654027 34.196192 29.658341
2004-04-05 08:38:33 51°11.585 2°45.994 8.971887 3.653816 34.218554 30.029144
2004-04-05 08:39:33 51°11.499 2°45.645 8.965216 3.653395 34.228435 28.242546
2004-04-05 08:40:33 51°11.413 2°45.295 8.964549 3.653184 34.22941 27.163845
2004-04-05 08:41:33 51°11.328 2°44.939 8.964215 3.654027 34.235822 28.242546
2004-04-05 08:42:34 51°11.24 2°44.58 8.944626 3.654344 34.254999 28.175127
2004-04-05 08:43:33 51°11.157 2°44.233 8.934805 3.652868 34.257086 26.354819
2004-04-05 08:44:33 51°11.073 2°43.88 8.938286 3.652658 34.253296 27.534648
2004-04-05 08:45:33 51°10.988 2°43.527 8.945103 3.652447 34.241562 28.242546
2004-04-05 08:46:33 51°10.904 2°43.176 8.949059 3.653079 34.244983 28.242546
2004-04-05 08:47:33 51°10.821 2°42.824 8.949584 3.653817 34.25109 28.815606
2004-04-05 08:48:33 51°10.738 2°42.474 8.955065 3.654344 34.256588 27.264973
2004-04-05 08:49:33 51°10.656 2°42.125 8.953063 3.654554 34.257993 27.534648
2004-04-05 08:50:33 51°10.574 2°41.776 8.963834 3.654344 34.254999 28.512221
2004-04-05 08:51:33 51°10.493 2°41.43 8.975556 3.655292 34.246628 29.557212
2004-04-05 08:52:33 51°10.412 2°41.083 8.993135 3.656767 34.254868 30.163982
2004-04-05 08:53:33 51°10.332 2°40.737 9.009043 3.657926 34.247115 32.017999
2004-04-05 08:54:33 51°10.245 2°40.395 9.029184 3.65919 34.242848 31.782033
2004-04-05 08:55:33 51°10.155 2°40.055 9.029327 3.659612 34.238522 28.57964
2004-04-05 08:56:33 51°10.064 2°39.713 9.043703 3.660138 34.239256 30.669623
2004-04-05 08:57:34 51°9.971 2°39.368 9.057742 3.66056 34.227809 32.119127
2004-04-05 08:58:33 51°9.882 2°39.034 9.063405 3.660876 34.227142 32.085418
2004-04-05 08:59:33 51°9.791 2°38.694 9.053269 3.659927 34.221228 31.444939
2004-04-05 09:00:33 51°9.702 2°38.354 9.042989 3.65919 34.216716 31.647195
2004-04-05 09:01:33 51°9.611 2°38.011 9.038229 3.658663 34.219937 30.130272
2004-04-05 09:02:33 51°9.521 2°37.669 9.039514 3.657715 34.212437 31.37752
2004-04-05 09:03:33 51°9.43 2°37.329 9.038229 3.657293 34.206466 32.355093
2004-04-05 09:04:34 51°9.339 2°36.983 9.043179 3.657504 34.20866 32.253965
2004-04-05 09:05:33 51°9.242 2°36.653 9.044797 3.658663 34.212814 30.939298
2004-04-05 09:06:33 51°9.136 2°36.323 9.046225 3.659506 34.217633 30.163982
2004-04-05 09:07:33 51°9.036 2°35.987 9.051556 3.659611 34.218729 30.433657
2004-04-05 09:08:33 51°8.942 2°35.648 9.041513 3.65919 34.219881 30.534785
2004-04-05 09:09:33 51°8.849 2°35.31 9.038752 3.658136 34.214451 29.995435
2004-04-05 09:10:33 51°8.756 2°34.979 9.042703 3.658031 34.214146 28.478512
2004-04-05 09:11:33 51°8.722 2°34.795 9.045273 3.659717 34.224574 27.096426
2004-04-05 09:12:33 51°8.717 2°34.704 9.041085 3.660244 34.231642 25.2087
2004-04-05 09:13:33 51°8.719 2°34.654 9.050746 3.66056 34.234142 24.129999
2004-04-05 09:14:33 51°8.703 2°34.616 9.045273 3.661087 34.234876 26.590785
2004-04-05 09:15:33 51°8.655 2°34.578 9.04513 3.661403 34.240542 27.669486
2004-04-05 09:16:33 51°8.605 2°34.516 9.045559 3.661192 34.237556 25.444665
2004-04-05 09:17:33 51°8.567 2°34.436 9.040085 3.660876 34.237433 24.871606
2004-04-05 09:18:33 51°8.535 2°34.363 9.038229 3.660138 34.235296 25.2087
2004-04-05 09:19:33 51°8.507 2°34.28 9.034135 3.659401 34.229992 25.040153
2004-04-05 09:20:33 51°8.472 2°34.206 9.032183 3.659506 34.231089 26.152563
2004-04-05 09:21:33 51°8.44 2°34.14 9.032564 3.658874 34.227673 24.871606
2004-04-05 09:22:33 51°8.407 2°34.067 9.029946 3.658663 34.22627 24.332255
2004-04-05 09:23:33 51°8.375 2°33.983 9.027661 3.658136 34.223951 24.129999
2004-04-05 09:24:33 51°8.341 2°33.906 9.024328 3.657293 34.218339 24.804187
2004-04-05 09:25:33 51°8.308 2°33.837 9.022281 3.659295 34.238399 24.60193
2004-04-05 09:26:33 51°8.281 2°33.763 9.021328 3.657293 34.222299 25.2087
2004-04-05 09:27:33 51°8.252 2°33.688 9.017853 3.656766 34.221564 25.916597
2004-04-05 09:28:33 51°8.223 2°33.612 9.010138 3.656661 34.223635 26.422238
2004-04-05 09:29:33 51°8.198 2°33.527 9.005948 3.65624 34.223205 26.2874
2004-04-05 09:30:33 51°8.167 2°33.444 8.995612 3.654764 34.215757 27.029007
2004-04-05 09:31:33 51°8.136 2°33.361 8.986609 3.654765 34.223683 26.523366
2004-04-05 09:32:33 51°8.111 2°33.276 8.970791 3.653711 34.223799 24.736768
2004-04-05 09:33:33 51°8.077 2°33.2 8.949727 3.651709 34.225133 26.186272
2004-04-05 09:34:33 51°8.042 2°33.13 8.93328 3.649918 34.222318 25.74805
2004-04-05 09:35:33 51°8.019 2°33.055 8.92217 3.648337 34.220909 25.073862
2004-04-05 09:36:33 51°8.003 2°32.979 8.906956 3.646651 34.217606 24.804187
2004-04-05 09:37:33 51°7.972 2°32.923 8.902663 3.646019 34.21736 26.455947
2004-04-05 09:38:33 51°7.94 2°32.863 8.89775 3.645387 34.21314 25.2087
2004-04-05 09:39:33 51°7.914 2°32.793 8.907243 3.645282 34.212039 24.669349
2004-04-05 09:40:33 51°7.888 2°32.724 8.916209 3.646546 34.214121 24.972734
2004-04-05 09:41:33 51°7.862 2°32.653 8.927987 3.647705 34.217486 25.680631
2004-04-05 09:42:33 51°7.846 2°32.577 8.935902 3.648337 34.214556 25.2087
2004-04-05 09:43:33 51°7.834 2°32.501 8.947772 3.64918 34.216208 26.085144
2004-04-05 09:44:33 51°7.806 2°32.435 8.944435 3.649918 34.218349 24.871606
2004-04-05 09:45:33 51°7.775 2°32.373 8.949631 3.650128 34.217373 25.680631
2004-04-05 09:46:33 51°7.769 2°32.31 8.955589 3.650761 34.220001 25.309828
2004-04-05 09:47:33 51°7.806 2°32.261 8.948583 3.650655 34.218902 25.714341
2004-04-05 09:48:33 51°7.859 2°32.218 8.94353 3.650128 34.219754 26.051435
2004-04-05 09:49:33 51°7.916 2°32.185 8.9164 3.648127 34.214738 25.478375
2004-04-05 09:50:33 51°7.977 2°32.165 8.915017 3.646546 34.218094 25.073862
2004-04-05 09:51:33 51°8.047 2°32.174 8.951204 3.649813 34.233133 24.669349
2004-04-05 09:52:33 51°8.118 2°32.216 8.977081 3.655503 34.259148 21.669212
2004-04-05 09:53:33 51°8.179 2°32.278 8.981226 3.657399 34.267019 19.410683
2004-04-05 09:54:33 51°8.219 2°32.319 8.974937 3.658453 34.277214 19.848905
2004-04-05 09:55:33 51°8.247 2°32.352 8.967408 3.657083 34.271665 20.051161
2004-04-05 09:56:33 51°8.265 2°32.382 8.962929 3.657399 34.282116 20.523093
2004-04-05 09:57:33 51°8.28 2°32.409 8.963977 3.656873 34.276618 19.848905
2004-04-05 09:58:33 51°8.291 2°32.44 8.970172 3.657294 34.277042 18.298272
2004-04-05 09:59:33 51°8.3 2°32.476 8.965788 3.657505 34.275267 17.590375
2004-04-05 10:00:33 51°8.329 2°32.51 8.956828 3.656978 34.280102 16.241999
2004-04-05 10:01:33 51°8.37 2°32.585 8.933041 3.655608 34.278528 17.624084
2004-04-05 10:02:33 51°8.367 2°32.693 8.929084 3.652447 34.273365 19.343264
2004-04-05 10:03:33 51°8.326 2°32.766 8.952682 3.654133 34.268695 20.523093
2004-04-05 10:04:33 51°8.271 2°32.829 8.9767 3.65624 34.265255 20.11858
2004-04-05 10:05:33 51°8.211 2°32.895 8.992421 3.658348 34.264998 20.219708
2004-04-05 10:06:33 51°8.146 2°32.958 8.984037 3.658137 34.258038 21.938888
2004-04-05 10:07:33 51°8.096 2°32.963 8.929561 3.653817 34.240767 23.590648
2004-04-05 10:08:33 51°8.081 2°32.957 8.897035 3.646546 34.222863 24.163708
2004-04-05 10:09:33 51°8.077 2°32.975 8.893266 3.645176 34.218093 25.006443
2004-04-05 10:10:33 51°8.078 2°33.018 8.889449 3.645071 34.216992 25.17499
2004-04-05 10:11:33 51°8.073 2°33.065 8.884535 3.644544 34.212282 27.500939
2004-04-05 10:12:33 51°8.049 2°33.076 8.910438 3.642753 34.18086 24.399674
2004-04-05 10:13:33 51°8.043 2°33.062 8.925365 3.644544 34.185277 24.163708
2004-04-05 10:14:33 51°8.045 2°33.06 8.923028 3.645808 34.19054 23.186136
2004-04-05 10:15:33 51°8.06 2°33.081 8.919786 3.647178 34.198489 25.17499
2004-04-05 10:16:33 51°8.084 2°33.108 8.939811 3.647599 34.194953 26.354819
2004-04-05 10:17:34 51°8.109 2°33.129 8.927129 3.647705 34.20002 22.91646
2004-04-05 10:18:33 51°8.132 2°33.146 8.921884 3.646967 34.197877 21.837759
2004-04-05 10:19:33 51°8.18 2°33.111 8.916495 3.646546 34.198239 24.129999
2004-04-05 10:20:33 51°8.282 2°33.089 8.97365 3.64781 34.199532 20.759059
2004-04-05 10:21:33 51°8.418 2°33.192 9.021138 3.658242 34.236932 22.073725
2004-04-05 10:22:33 51°8.621 2°33.345 8.943816 3.659612 34.245654 19.410683
2004-04-05 10:23:33 51°8.813 2°33.586 8.804278 3.643491 34.247431 21.197281
2004-04-05 10:24:34 51°9.009 2°33.836 8.779097 3.63875 34.241657 19.983742
2004-04-05 10:25:33 51°9.204 2°34.072 8.76992 3.638855 34.262722 17.725212
2004-04-05 10:26:33 51°9.402 2°34.316 8.778524 3.639593 34.264859 17.185862
2004-04-05 10:27:33 51°9.603 2°34.556 8.787173 3.641279 34.274534 17.421828
2004-04-05 10:28:34 51°9.806 2°34.8 8.796252 3.638855 34.238771 19.882614
2004-04-05 10:29:33 51°10.001 2°35.046 8.805234 3.643386 34.27664 22.781623
2004-04-05 10:30:33 51°10.197 2°35.291 8.811874 3.644018 34.27847 21.466956
2004-04-05 10:31:34 51°10.403 2°35.536 8.824483 3.646126 34.294146 20.860187
2004-04-05 10:32:33 51°10.6 2°35.768 8.811587 3.648233 34.313813 18.062306
2004-04-05 10:33:33 51°10.795 2°36.01 8.804135 3.648655 34.330216 16.815059
2004-04-05 10:34:33 51°10.993 2°36.249 8.795153 3.647601 34.325577 17.657794
2004-04-05 10:35:33 51°11.193 2°36.487 8.790136 3.645072 34.304683 18.365691
2004-04-05 10:36:33 51°11.392 2°36.728 8.788702 3.646126 34.31892 15.871195
2004-04-05 10:37:33 51°11.589 2°36.965 8.77752 3.646337 34.328328 15.736358
2004-04-05 10:38:33 51°11.793 2°37.181 8.778619 3.646337 34.33393 15.466683
2004-04-05 10:39:33 51°12.011 2°37.363 8.784975 3.649182 34.358944 14.48911
2004-04-05 10:40:33 51°12.222 2°37.576 8.774748 3.650446 34.372998 15.095879
2004-04-05 10:41:33 51°12.43 2°37.787 8.754719 3.649709 34.383703 14.826204
2004-04-05 10:42:33 51°12.637 2°38.003 8.737935 3.648339 34.386182 15.500392
2004-04-05 10:43:33 51°12.844 2°38.221 8.727318 3.646864 34.383544 14.994751
2004-04-05 10:44:33 51°13.055 2°38.433 8.722965 3.646759 34.391271 15.466683
2004-04-05 10:45:33 51°13.255 2°38.657 8.672003 3.647918 34.409064 14.522819
2004-04-05 10:46:34 51°13.468 2°38.831 8.554086 3.640332 34.43884 15.466683
2004-04-05 10:47:33 51°13.691 2°38.927 8.503662 3.635486 34.464562 12.702512
2004-04-05 10:48:33 51°13.918 2°38.994 8.499678 3.633484 34.467737 11.253007
2004-04-05 10:49:33 51°14.136 2°38.952 8.49315 3.63359 34.46966 11.859777
2004-04-05 10:50:33 51°14.318 2°38.79 8.480764 3.631798 34.458041 10.848494
2004-04-05 10:51:33 51°14.491 2°38.595 8.454879 3.631799 34.479129 12.567674
2004-04-05 10:52:33 51°14.649 2°38.376 8.454303 3.628848 34.462558 15.298136
2004-04-05 10:53:33 51°14.753 2°38.122 8.448827 3.62084 34.37793 15.60152
2004-04-05 10:54:33 51°14.81 2°37.85 8.470968 3.606193 34.215175 14.017178
2004-04-05 10:55:33 51°14.84 2°37.756 8.481388 3.592284 34.054772 14.118306
2004-04-05 10:56:34 51°14.864 2°37.746 8.485277 3.626951 34.412528 14.859913
2004-04-05 10:57:33 51°14.883 2°37.767 8.472745 3.625581 34.40373 17.590375
2004-04-05 10:58:33 51°14.903 2°37.81 8.48326 3.625687 34.412131 18.534238
2004-04-05 10:59:33 51°14.928 2°37.842 8.484172 3.627372 34.405647 15.298136
2004-04-05 11:00:33 51°14.978 2°37.825 8.475866 3.617151 34.315534 16.612802
2004-04-05 11:01:33 51°15.04 2°37.799 8.489501 3.626319 34.403424 14.522819
2004-04-05 11:02:33 51°15.102 2°37.774 8.471352 3.626424 34.412632 15.904905
2004-04-05 11:03:33 51°15.167 2°37.769 8.465638 3.616414 34.323093 15.432973
2004-04-05 11:04:33 51°15.231 2°37.777 8.459875 3.626319 34.432586 15.365554
2004-04-05 11:05:33 51°15.289 2°37.792 8.433117 3.625265 34.425505 18.331982
2004-04-05 11:06:33 51°15.345 2°37.808 8.423122 3.616836 34.360712 16.882477
2004-04-05 11:07:33 51°15.403 2°37.827 8.405147 3.611357 34.318971 15.837486
2004-04-05 11:08:33 51°15.463 2°37.858 8.3926 3.624739 34.475963 14.590238
2004-04-05 11:09:34 51°15.528 2°37.908 8.384041 3.618417 34.425294 14.387982
2004-04-05 11:10:33 51°15.582 2°37.952 8.37476 3.620208 34.440195 14.590238
2004-04-05 11:11:33 51°15.627 2°38 8.358118 3.619682 34.450066 14.522819
2004-04-05 11:12:33 51°15.667 2°38.048 8.351672 3.62337 34.499721 15.972324
2004-04-05 11:13:33 51°15.709 2°38.091 8.351431 3.608302 34.344163 16.309418
2004-04-05 11:14:33 51°15.754 2°38.128 8.348304 3.605562 34.318394 15.871195
2004-04-05 11:15:33 51°15.808 2°38.157 8.358599 3.623581 34.503584 15.197007
2004-04-05 11:16:33 51°15.868 2°38.193 8.356867 3.623897 34.504489 14.219435
2004-04-05 11:17:33 51°15.927 2°38.225 8.356627 3.623265 34.501864 13.444118
2004-04-05 11:18:34 51°15.984 2°38.262 8.350469 3.613149 34.397127 13.578956
2004-04-05 11:19:33 51°16.037 2°38.293 8.355424 3.616626 34.429898 13.814922
2004-04-05 11:20:33 51°16.093 2°38.324 8.351672 3.622316 34.495889 13.949759
2004-04-05 11:21:33 51°16.15 2°38.357 8.35706 3.62337 34.501351 13.275571
2004-04-05 11:22:33 51°16.206 2°38.394 8.355088 3.623581 34.49788 14.421691
2004-04-05 11:23:33 51°16.261 2°38.425 8.348641 3.623159 34.500748 14.286853
2004-04-05 11:24:33 51°16.315 2°38.455 8.348881 3.622632 34.49924 14.657657
2004-04-05 11:25:33 51°16.369 2°38.48 8.348064 3.61926 34.459435 14.859913
2004-04-05 11:26:33 51°16.424 2°38.507 8.354799 3.62063 34.472321 15.466683
2004-04-05 11:27:33 51°16.48 2°38.543 8.352394 3.619893 34.470205 16.444255
2004-04-05 11:28:33 51°16.538 2°38.583 8.348545 3.617574 34.444013 16.545383
2004-04-05 11:29:33 51°16.595 2°38.618 8.342819 3.618734 34.457923 16.376836
2004-04-05 11:30:33 51°16.647 2°38.643 8.340558 3.618207 34.461296 17.522956
2004-04-05 11:31:33 51°16.697 2°38.668 8.337045 3.616099 34.437333 17.421828
2004-04-05 11:32:33 51°16.746 2°38.698 8.337478 3.607986 34.355424 17.86005
2004-04-05 11:33:33 51°16.797 2°38.73 8.335698 3.616732 34.444033 17.017315
2004-04-05 11:34:33 51°16.853 2°38.76 8.338729 3.616521 34.444242 17.792631
2004-04-05 11:35:33 51°16.913 2°38.808 8.328624 3.616099 34.441403 16.848768
2004-04-05 11:36:33 51°16.975 2°38.895 8.332714 3.615362 34.438469 15.837486
2004-04-05 11:37:33 51°17.033 2°38.999 8.334976 3.61631 34.446079 14.994751
2004-04-05 11:38:33 51°17.08 2°39.128 8.324244 3.616415 34.448824 15.770067
2004-04-05 11:39:34 51°17.102 2°39.262 8.324292 3.616626 34.460018 18.197144
2004-04-05 11:40:33 51°17.109 2°39.376 8.326795 3.616732 34.452175 15.938614
2004-04-05 11:41:33 51°17.11 2°39.48 8.332522 3.617575 34.46274 17.421828
2004-04-05 11:42:33 51°17.128 2°39.603 8.334206 3.618101 34.465881 19.073589
2004-04-05 11:43:33 51°17.19 2°39.669 8.329345 3.61905 34.477565 16.444255
2004-04-05 11:44:33 51°17.262 2°39.669 8.34051 3.619787 34.47479 15.432973
2004-04-05 11:45:33 51°17.345 2°39.653 8.331319 3.61905 34.474305 14.118306
2004-04-05 11:46:33 51°17.446 2°39.631 8.327468 3.618418 34.472492 13.848631
2004-04-05 11:47:33 51°17.571 2°39.632 8.335505 3.617153 34.457457 13.747503
2004-04-05 11:48:34 51°17.685 2°39.639 8.332955 3.615889 34.440797 12.533965
2004-04-05 11:49:33 51°17.739 2°39.667 8.33026 3.615783 34.437238 14.253144
2004-04-05 11:50:33 51°17.772 2°39.721 8.322656 3.614308 34.437068 17.118443
2004-04-05 11:51:33 51°17.801 2°39.778 8.352201 3.613676 34.424667 14.4554
2004-04-05 11:52:33 51°17.827 2°39.838 8.359417 3.617047 34.43111 13.612665
2004-04-05 11:53:33 51°17.852 2°39.901 8.354943 3.616099 34.430824 13.410409
2004-04-05 11:54:33 51°17.876 2°39.965 8.361485 3.61768 34.429675 12.76993
2004-04-05 11:55:33 51°17.901 2°40.029 8.323041 3.618101 34.442272 13.309281
2004-04-05 11:56:33 51°17.933 2°40.078 8.344599 3.616416 34.452896 13.545247
2004-04-05 11:57:33 51°17.961 2°40.086 8.3228 3.615783 34.445379 14.590238
2004-04-05 11:58:34 51°17.976 2°40.105 8.317842 3.614624 34.437977 15.163298
2004-04-05 11:59:33 51°17.991 2°40.134 8.316928 3.61473 34.443166 18.466819
2004-04-05 12:00:33 51°18.007 2°40.159 8.309129 3.614624 34.45101 20.961315
2004-04-05 12:01:33 51°18.024 2°40.177 8.310766 3.614835 34.454876 19.950033
2004-04-05 12:02:33 51°18.036 2°40.197 8.322126 3.614203 34.43758 16.983606
2004-04-05 12:03:34 51°18.046 2°40.22 8.319575 3.614308 34.443584 18.466819
2004-04-05 12:04:33 51°18.057 2°40.24 8.32819 3.615573 34.441517 17.489247
2004-04-05 12:05:33 51°18.068 2°40.259 8.317024 3.615573 34.441517 17.388118
2004-04-05 12:06:33 51°18.08 2°40.281 8.315821 3.614624 34.447751 19.612939
2004-04-05 12:07:33 51°18.094 2°40.299 8.313606 3.614519 34.445004 19.511811
2004-04-05 12:08:33 51°18.112 2°40.316 8.315387 3.614414 34.443072 18.298272
2004-04-05 12:09:33 51°18.14 2°40.327 8.31274 3.615256 34.442237 18.298272
2004-04-05 12:10:33 51°18.175 2°40.334 8.310862 3.614098 34.445423 18.905042
2004-04-05 12:11:34 51°18.226 2°40.352 8.302774 3.611885 34.424398 17.421828
2004-04-05 12:12:33 51°18.305 2°40.408 8.298586 3.612201 34.447309 18.3994
2004-04-05 12:13:34 51°18.342 2°40.573 8.296612 3.612412 34.445468 18.331982
2004-04-05 12:14:33 51°18.322 2°40.773 8.300223 3.612517 34.446586 17.489247
2004-04-05 12:15:33 51°18.267 2°40.988 8.305374 3.613149 34.450848 17.522956
2004-04-05 12:16:33 51°18.197 2°41.223 8.311825 3.613887 34.452967 17.624084
2004-04-05 12:17:33 51°18.123 2°41.455 8.317072 3.615573 34.46433 17.152153
2004-04-05 12:18:34 51°18.047 2°41.689 8.316446 3.6161 34.469918 16.74764
2004-04-05 12:19:33 51°17.967 2°41.93 8.327709 3.617891 34.488105 15.230717
2004-04-05 12:20:33 51°17.877 2°42.199 8.350421 3.622 34.509662 13.477828
2004-04-05 12:21:34 51°17.778 2°42.467 8.375049 3.625267 34.517374 13.511537
2004-04-05 12:22:34 51°17.684 2°42.732 8.401638 3.626531 34.509581 15.331845
2004-04-05 12:23:33 51°17.591 2°42.996 8.431916 3.6279 34.496406 15.904905
2004-04-05 12:24:34 51°17.479 2°43.252 8.431243 3.62927 34.491381 16.612802
2004-04-05 12:25:34 51°17.36 2°43.514 8.429081 3.62927 34.497073 17.927469
2004-04-05 12:26:34 51°17.218 2°43.809 8.440324 3.630534 34.503943 17.28699
2004-04-05 12:27:33 51°17.077 2°44.101 8.468615 3.632326 34.505002 15.938614
2004-04-05 12:28:34 51°16.934 2°44.399 8.506109 3.635487 34.514851 15.197007
2004-04-05 12:29:34 51°16.804 2°44.703 8.514988 3.637067 34.504754 14.286853
2004-04-05 12:30:33 51°16.674 2°45.005 8.564588 3.637067 34.486913 14.152016
2004-04-05 12:31:34 51°16.534 2°45.308 8.672147 3.637277 34.486705 -0.545283
2004-04-05 12:32:34 51°16.411 2°45.627 8.758304 3.637594 34.48842 -0.545283
2004-04-05 12:33:34 51°16.302 2°45.966 8.881099 3.63791 34.490946 -0.545283
2004-04-05 12:34:33 51°16.21 2°46.31 8.996898 3.63812 34.491549 -0.545283
2004-04-05 12:35:34 51°16.128 2°46.68 9.115153 3.638436 34.481921 -0.545283
2004-04-05 12:36:34 51°16.052 2°47.055 9.212593 3.639174 34.46299 -0.545283
2004-04-05 12:37:33 51°15.969 2°47.421 9.300263 3.640332 34.442069 -0.545283
2004-04-05 12:38:33 51°15.88 2°47.79 9.382796 3.642334 34.43732 -0.545283
2004-04-05 12:39:34 51°15.812 2°48.179 9.49846 3.644863 34.444573 -0.545283
2004-04-05 12:40:34 51°15.764 2°48.567 9.576163 3.647497 34.452929 -0.578993
2004-04-05 12:41:33 51°15.717 2°48.949 9.664758 3.650448 34.463796 -0.511574
2004-04-05 12:42:34 51°15.673 2°49.342 9.755964 3.653187 34.478081 -0.545283
2004-04-05 12:43:33 51°15.631 2°49.731 9.843187 3.656032 34.488631 -0.578993
2004-04-05 12:44:34 51°15.591 2°50.139 9.900284 3.658772 34.497263 -0.545283
2004-04-05 12:45:33 51°15.562 2°50.533 9.997353 3.661617 34.505384 -0.612702
2004-04-05 12:46:33 51°15.529 2°50.933 10.062375 3.664356 34.510787 -0.578993
2004-04-05 12:47:33 51°15.493 2°51.329 10.146897 3.667096 34.518599 -0.545283
2004-04-05 12:48:34 51°15.429 2°51.711 10.221214 3.669836 34.524799 -0.578993
2004-04-05 12:49:33 51°15.349 2°52.076 10.291244 3.672681 34.536115 -0.545283
2004-04-05 12:50:33 51°15.263 2°52.443 10.372252 3.675315 34.542809 -0.578993
2004-04-05 12:51:34 51°15.17 2°52.813 10.439652 3.677949 34.549498 -0.578993
2004-04-05 12:52:33 51°15.087 2°53.167 10.511868 3.680584 34.55458 -0.578993
2004-04-05 12:53:34 51°15.01 2°53.532 10.592419 3.683218 34.560461 -0.578993
2004-04-05 12:54:33 51°14.893 2°53.849 10.657688 3.685852 34.56634 -0.578993
2004-04-05 12:55:33 51°14.742 2°54.131 10.735231 3.688697 34.577619 -0.578993
2004-04-05 12:56:33 51°14.599 2°54.435 10.800081 3.691332 34.580286 -0.545283
2004-04-05 12:57:34 51°14.469 2°54.761 10.867227 3.693966 34.587754 -0.578993
2004-04-05 12:58:33 51°14.361 2°55.08 10.915854 3.696706 34.594717 -0.578993